createdAt,value
2018-10-01T00:02:22.523Z,2.70
2018-10-01T00:04:50.385Z,2.43
2018-10-01T00:07:18.323Z,2.57
2018-10-01T00:09:46.202Z,2.67
2018-10-01T00:12:14.160Z,2.60
2018-10-01T00:14:42.077Z,3.10
2018-10-01T00:17:09.971Z,2.93
2018-10-01T00:19:43.390Z,3.60
2018-10-01T00:22:16.651Z,3.50
2018-10-01T00:24:44.599Z,6.13
2018-10-01T00:27:12.515Z,5.50
2018-10-01T00:29:40.394Z,5.57
2018-10-01T00:32:08.644Z,4.93
2018-10-01T00:34:36.517Z,4.83
2018-10-01T00:37:04.619Z,4.53
2018-10-01T00:39:32.592Z,4.37
2018-10-01T00:42:00.566Z,4.10
2018-10-01T00:44:28.432Z,4.77
2018-10-01T00:46:56.380Z,3.77
2018-10-01T00:49:24.250Z,4.00
2018-10-01T00:51:55.446Z,3.40
2018-10-01T00:54:23.307Z,3.47
2018-10-01T00:56:51.179Z,3.53
2018-10-01T00:59:19.091Z,3.20
2018-10-01T01:01:46.955Z,3.30
2018-10-01T01:04:14.830Z,3.10
2018-10-01T01:06:42.798Z,3.30
2018-10-01T01:09:10.698Z,3.60
2018-10-01T01:11:38.563Z,3.30
2018-10-01T01:14:06.454Z,3.63
2018-10-01T01:16:34.345Z,4.30
2018-10-01T01:19:02.246Z,4.50
2018-10-01T01:21:30.186Z,4.03
2018-10-01T01:23:58.094Z,4.60
2018-10-01T01:26:26.094Z,5.10
2018-10-01T01:28:54.153Z,4.67
2018-10-01T01:31:22.015Z,4.87
2018-10-01T01:33:49.980Z,5.23
2018-10-01T01:36:17.934Z,5.20
2018-10-01T01:38:45.819Z,4.73
2018-10-01T01:41:15.092Z,4.90
2018-10-01T01:43:42.966Z,4.83
2018-10-01T01:46:10.934Z,4.43
2018-10-01T01:48:38.802Z,4.83
2018-10-01T01:51:06.691Z,5.10
2018-10-01T01:56:20.932Z,5.00
2018-10-01T01:58:49.144Z,5.00
2018-10-01T02:01:17.044Z,5.10
2018-10-01T02:03:44.907Z,5.57
2018-10-01T02:06:12.819Z,5.40
2018-10-01T02:08:40.690Z,5.30
2018-10-01T02:11:08.571Z,5.57
2018-10-01T02:13:36.530Z,6.03
2018-10-01T02:16:04.438Z,5.47
2018-10-01T02:18:32.327Z,5.30
2018-10-01T02:21:00.248Z,5.37
2018-10-01T02:23:28.175Z,5.03
2018-10-01T02:25:56.170Z,6.13
2018-10-01T02:28:24.048Z,5.17
2018-10-01T02:30:52.075Z,5.33
2018-10-01T02:33:20.070Z,5.30
2018-10-01T02:35:47.941Z,4.43
2018-10-01T02:38:15.902Z,5.20
2018-10-01T02:40:43.889Z,4.93
2018-10-01T02:43:11.824Z,4.80
2018-10-01T02:45:39.690Z,4.87
2018-10-01T02:48:07.595Z,5.23
2018-10-01T02:50:35.984Z,5.77
2018-10-01T02:54:06.712Z,6.10
2018-10-01T02:56:35.700Z,6.13
2018-10-01T02:59:03.563Z,5.30
2018-10-01T03:01:31.635Z,6.50
2018-10-01T03:03:59.507Z,5.77
2018-10-01T03:06:27.451Z,5.70
2018-10-01T03:08:55.318Z,5.77
2018-10-01T03:11:23.213Z,6.47
2018-10-01T03:13:51.130Z,6.57
2018-10-01T03:16:18.994Z,8.33
2018-10-01T03:18:46.914Z,7.93
2018-10-01T03:21:14.893Z,7.47
2018-10-01T03:23:42.670Z,7.30
2018-10-01T03:26:10.571Z,7.53
2018-10-01T03:28:38.488Z,7.70
2018-10-01T03:31:06.407Z,8.40
2018-10-01T03:33:34.351Z,8.90
2018-10-01T03:36:02.241Z,8.60
2018-10-01T03:38:30.107Z,10.37
2018-10-01T03:40:59.004Z,9.17
2018-10-01T03:43:26.899Z,10.20
2018-10-01T03:45:54.852Z,10.47
2018-10-01T03:48:22.843Z,11.47
2018-10-01T03:50:50.857Z,10.67
2018-10-01T03:53:18.770Z,13.57
2018-10-01T03:55:46.651Z,15.90
2018-10-01T03:58:14.521Z,15.87
2018-10-01T04:00:42.383Z,16.17
2018-10-01T04:03:10.393Z,15.37
2018-10-01T04:05:50.474Z,14.80
2018-10-01T04:08:18.383Z,15.57
2018-10-01T04:10:46.331Z,14.77
2018-10-01T04:13:14.243Z,13.57
2018-10-01T04:15:42.134Z,13.93
2018-10-01T04:18:10.016Z,14.00
2018-10-01T04:20:37.898Z,12.83
2018-10-01T04:23:05.854Z,12.83
2018-10-01T04:25:33.735Z,12.53
2018-10-01T04:28:01.616Z,12.67
2018-10-01T04:30:29.557Z,12.70
2018-10-01T04:32:57.474Z,11.30
2018-10-01T04:35:25.412Z,11.77
2018-10-01T04:37:53.315Z,12.70
2018-10-01T04:40:21.242Z,10.97
2018-10-01T04:42:50.098Z,10.50
2018-10-01T04:45:17.969Z,10.63
2018-10-01T04:47:45.890Z,10.70
2018-10-01T04:50:13.890Z,10.93
2018-10-01T04:52:43.131Z,10.83
2018-10-01T04:55:18.202Z,11.53
2018-10-01T04:57:46.088Z,13.67
2018-10-01T05:02:59.946Z,12.60
2018-10-01T05:05:27.810Z,13.20
2018-10-01T05:07:55.679Z,12.53
2018-10-01T05:10:23.636Z,11.77
2018-10-01T05:12:51.482Z,12.03
2018-10-01T05:15:20.663Z,11.90
2018-10-01T05:17:48.523Z,11.67
2018-10-01T05:20:16.411Z,13.13
2018-10-01T05:22:44.364Z,13.90
2018-10-01T05:25:12.267Z,14.10
2018-10-01T05:27:41.370Z,24.53
2018-10-01T05:30:09.267Z,16.83
2018-10-01T05:35:24.091Z,14.57
2018-10-01T05:37:52.182Z,14.20
2018-10-01T05:40:20.127Z,15.77
2018-10-01T05:42:48.094Z,14.70
2018-10-01T05:45:15.978Z,13.50
2018-10-01T05:47:43.858Z,14.30
2018-10-01T05:50:11.735Z,13.27
2018-10-01T05:52:39.674Z,12.20
2018-10-01T05:55:07.555Z,8.63
2018-10-01T05:57:35.489Z,8.23
2018-10-01T06:00:03.396Z,8.13
2018-10-01T06:02:31.426Z,8.37
2018-10-01T06:04:59.315Z,6.43
2018-10-01T06:07:27.182Z,7.33
2018-10-01T06:09:55.083Z,6.97
2018-10-01T06:12:23.000Z,5.80
2018-10-01T06:14:50.899Z,6.40
2018-10-01T06:17:18.766Z,7.23
2018-10-01T06:19:46.719Z,48.50
2018-10-01T06:22:14.608Z,9.27
2018-10-01T06:24:42.547Z,6.63
2018-10-01T06:27:10.523Z,7.00
2018-10-01T06:29:39.507Z,6.50
2018-10-01T06:32:07.479Z,6.70
2018-10-01T06:34:35.359Z,6.47
2018-10-01T06:37:03.320Z,5.90
2018-10-01T06:39:31.411Z,7.30
2018-10-01T06:41:59.456Z,6.40
2018-10-01T06:44:27.318Z,19.30
2018-10-01T06:46:55.280Z,9.40
2018-10-01T06:49:23.267Z,5.97
2018-10-01T06:51:54.323Z,6.23
2018-10-01T06:54:22.322Z,5.97
2018-10-01T06:56:50.211Z,6.57
2018-10-01T06:59:18.087Z,6.60
2018-10-01T07:04:32.503Z,6.17
2018-10-01T07:07:00.501Z,5.93
2018-10-01T07:09:28.427Z,6.70
2018-10-01T07:11:56.282Z,7.07
2018-10-01T07:14:24.190Z,5.87
2018-10-01T07:16:52.190Z,6.70
2018-10-01T07:19:20.018Z,5.00
2018-10-01T07:21:47.952Z,5.90
2018-10-01T07:24:15.820Z,5.43
2018-10-01T07:26:43.699Z,4.43
2018-10-01T07:29:11.563Z,3.90
2018-10-01T07:31:39.535Z,3.63
2018-10-01T07:34:07.527Z,3.37
2018-10-01T07:36:35.403Z,3.63
2018-10-01T07:39:04.858Z,3.67
2018-10-01T07:41:32.712Z,3.27
2018-10-01T07:44:00.590Z,2.80
2018-10-01T07:46:28.610Z,3.00
2018-10-01T07:48:56.479Z,2.57
2018-10-01T07:51:24.384Z,6.03
2018-10-01T07:56:27.123Z,6.73
2018-10-01T07:58:55.019Z,7.70
2018-10-01T08:01:22.900Z,8.03
2018-10-01T08:03:50.810Z,9.07
2018-10-01T08:06:18.715Z,12.77
2018-10-01T08:08:46.579Z,11.83
2018-10-01T08:11:14.477Z,11.10
2018-10-01T08:13:42.359Z,10.70
2018-10-01T08:16:11.214Z,11.23
2018-10-01T08:18:39.099Z,9.00
2018-10-01T08:21:07.003Z,10.30
2018-10-01T08:23:34.937Z,9.20
2018-10-01T08:26:02.775Z,4.60
2018-10-01T08:28:30.675Z,6.87
2018-10-01T08:30:58.538Z,7.60
2018-10-01T08:33:26.416Z,9.17
2018-10-01T08:35:54.289Z,8.50
2018-10-01T08:38:22.243Z,8.13
2018-10-01T08:40:50.051Z,8.57
2018-10-01T08:43:17.919Z,7.93
2018-10-01T08:45:45.803Z,6.47
2018-10-01T08:48:14.783Z,6.10
2018-10-01T08:52:49.022Z,5.33
2018-10-01T08:55:16.879Z,5.17
2018-10-01T08:57:44.743Z,5.03
2018-10-01T09:00:12.682Z,3.87
2018-10-01T09:02:40.604Z,4.13
2018-10-01T09:05:08.433Z,3.23
2018-10-01T09:07:36.367Z,3.33
2018-10-01T09:10:04.300Z,3.17
2018-10-01T09:12:32.605Z,3.37
2018-10-01T09:15:00.520Z,3.33
2018-10-01T09:17:28.435Z,3.10
2018-10-01T09:19:56.318Z,3.30
2018-10-01T09:22:24.188Z,2.80
2018-10-01T09:24:52.075Z,3.13
2018-10-01T09:27:19.942Z,3.53
2018-10-01T09:29:47.807Z,2.90
2018-10-01T09:32:15.769Z,3.23
2018-10-01T09:34:43.555Z,2.60
2018-10-01T09:37:11.415Z,3.30
2018-10-01T09:39:39.296Z,3.33
2018-10-01T09:42:07.215Z,3.10
2018-10-01T09:44:35.125Z,3.07
2018-10-01T09:47:02.927Z,3.10
2018-10-01T09:49:30.812Z,3.90
2018-10-01T09:51:59.301Z,3.30
2018-10-01T09:54:27.191Z,3.13
2018-10-01T09:56:55.091Z,3.10
2018-10-01T09:59:22.955Z,3.67
2018-10-01T10:01:50.871Z,4.13
2018-10-01T10:04:18.776Z,3.97
2018-10-01T10:06:46.642Z,3.80
2018-10-01T10:09:14.516Z,3.57
2018-10-01T10:11:42.376Z,3.73
2018-10-01T10:14:10.343Z,4.30
2018-10-01T10:16:38.184Z,4.17
2018-10-01T10:19:06.011Z,4.23
2018-10-01T10:21:33.922Z,4.43
2018-10-01T10:24:01.798Z,4.50
2018-10-01T10:26:29.856Z,4.53
2018-10-01T10:28:57.811Z,4.40
2018-10-01T10:31:25.683Z,4.90
2018-10-01T10:33:53.608Z,3.23
2018-10-01T10:36:21.483Z,3.53
2018-10-01T10:38:49.371Z,3.07
2018-10-01T10:41:17.226Z,3.10
2018-10-01T10:43:45.142Z,3.47
2018-10-01T10:46:13.007Z,3.00
2018-10-01T10:48:40.871Z,3.67
2018-10-01T10:51:08.735Z,2.83
2018-10-01T10:53:36.600Z,2.60
2018-10-01T10:56:04.656Z,1.50
2018-10-01T10:58:32.601Z,2.60
2018-10-01T11:01:00.483Z,1.60
2018-10-01T11:03:28.351Z,1.70
2018-10-01T11:05:56.226Z,1.70
2018-10-01T11:08:24.162Z,1.20
2018-10-01T11:10:51.959Z,1.90
2018-10-01T11:13:19.839Z,1.70
2018-10-01T11:15:47.709Z,1.30
2018-10-01T11:18:15.624Z,1.50
2018-10-01T11:20:43.544Z,1.60
2018-10-01T11:23:11.351Z,1.47
2018-10-01T11:25:39.228Z,1.37
2018-10-01T11:28:07.083Z,1.30
2018-10-01T11:30:34.956Z,1.20
2018-10-01T11:33:02.845Z,1.30
2018-10-01T11:35:30.728Z,1.20
2018-10-01T11:37:58.614Z,1.23
2018-10-01T11:40:26.521Z,1.50
2018-10-01T11:42:54.370Z,1.20
2018-10-01T11:45:22.337Z,1.13
2018-10-01T11:47:50.099Z,1.30
2018-10-01T11:50:17.967Z,1.80
2018-10-01T11:52:45.847Z,1.33
2018-10-01T11:55:13.714Z,1.00
2018-10-01T11:57:41.659Z,1.10
2018-10-01T12:00:09.668Z,0.90
2018-10-01T12:02:37.572Z,0.90
2018-10-01T12:05:05.778Z,0.90
2018-10-01T12:07:33.647Z,1.00
2018-10-01T12:10:01.562Z,0.90
2018-10-01T12:12:29.450Z,1.00
2018-10-01T12:14:57.331Z,0.97
2018-10-01T12:17:25.251Z,1.30
2018-10-01T12:19:53.108Z,0.90
2018-10-01T12:22:21.001Z,0.80
2018-10-01T12:24:48.906Z,0.87
2018-10-01T12:27:16.819Z,1.03
2018-10-01T12:29:44.671Z,0.70
2018-10-01T12:32:12.538Z,0.70
2018-10-01T12:34:40.598Z,0.60
2018-10-01T12:37:08.463Z,0.60
2018-10-01T12:39:36.412Z,0.80
2018-10-01T12:42:04.307Z,0.90
2018-10-01T12:44:32.214Z,0.60
2018-10-01T12:47:00.111Z,1.10
2018-10-01T12:49:27.975Z,0.63
2018-10-01T12:51:56.381Z,0.60
2018-10-01T12:54:24.239Z,0.60
2018-10-01T12:56:52.106Z,0.57
2018-10-01T12:59:19.991Z,0.40
2018-10-01T13:04:34.487Z,0.87
2018-10-01T13:07:02.590Z,0.90
2018-10-01T13:09:30.455Z,0.77
2018-10-01T13:11:58.433Z,0.60
2018-10-01T13:14:26.267Z,0.70
2018-10-01T13:16:54.134Z,0.60
2018-10-01T13:19:22.035Z,0.87
2018-10-01T13:21:49.970Z,0.93
2018-10-01T13:24:18.680Z,0.90
2018-10-01T13:26:46.482Z,1.07
2018-10-01T13:29:14.351Z,0.87
2018-10-01T13:31:42.215Z,0.70
2018-10-01T13:34:10.096Z,0.90
2018-10-01T13:36:38.041Z,0.70
2018-10-01T13:39:06.888Z,0.50
2018-10-01T13:41:34.754Z,0.60
2018-10-01T13:44:02.619Z,1.10
2018-10-01T13:46:30.475Z,0.43
2018-10-01T13:48:58.374Z,0.50
2018-10-01T13:51:27.966Z,0.50
2018-10-01T13:53:55.841Z,0.50
2018-10-01T13:56:23.683Z,0.57
2018-10-01T13:58:51.549Z,2.93
2018-10-01T14:01:19.470Z,0.63
2018-10-01T14:03:47.302Z,0.60
2018-10-01T14:06:15.206Z,0.50
2018-10-01T14:08:43.040Z,1.10
2018-10-01T14:11:10.891Z,0.43
2018-10-01T14:13:38.946Z,0.93
2018-10-01T14:16:06.787Z,0.50
2018-10-01T14:18:34.646Z,0.47
2018-10-01T14:21:02.558Z,0.53
2018-10-01T14:23:30.414Z,0.37
2018-10-01T14:25:58.307Z,0.43
2018-10-01T14:28:26.174Z,0.50
2018-10-01T14:30:54.062Z,0.30
2018-10-01T14:33:21.911Z,0.50
2018-10-01T14:35:49.758Z,0.47
2018-10-01T14:38:17.635Z,0.50
2018-10-01T14:40:45.486Z,0.47
2018-10-01T14:43:13.355Z,0.50
2018-10-01T14:45:41.206Z,0.63
2018-10-01T14:48:09.196Z,0.70
2018-10-01T14:50:37.103Z,0.33
2018-10-01T14:53:04.973Z,0.70
2018-10-01T14:55:32.835Z,0.70
2018-10-01T14:58:00.743Z,0.40
2018-10-01T15:00:28.818Z,0.60
2018-10-01T15:02:56.490Z,0.60
2018-10-01T15:05:24.367Z,0.70
2018-10-01T15:07:52.243Z,0.60
2018-10-01T15:10:20.091Z,0.83
2018-10-01T15:12:47.994Z,0.63
2018-10-01T15:15:15.858Z,0.40
2018-10-01T15:17:46.248Z,0.60
2018-10-01T15:20:14.235Z,0.90
2018-10-01T15:22:42.109Z,0.60
2018-10-01T15:25:09.996Z,0.53
2018-10-01T15:27:37.864Z,0.50
2018-10-01T15:30:06.115Z,0.50
2018-10-01T15:32:33.931Z,0.70
2018-10-01T15:35:01.806Z,1.30
2018-10-01T15:37:30.478Z,0.47
2018-10-01T15:39:58.354Z,0.60
2018-10-01T15:42:26.214Z,0.50
2018-10-01T15:44:54.125Z,0.60
2018-10-01T15:47:22.091Z,0.30
2018-10-01T15:49:50.023Z,0.50
2018-10-01T15:52:17.882Z,0.33
2018-10-01T15:54:45.971Z,0.30
2018-10-01T15:57:13.843Z,1.03
2018-10-01T15:59:41.978Z,0.50
2018-10-01T16:02:09.882Z,0.60
2018-10-01T16:04:37.775Z,0.50
2018-10-01T16:07:05.657Z,0.47
2018-10-01T16:09:33.562Z,0.53
2018-10-01T16:12:01.427Z,0.47
2018-10-01T16:14:29.343Z,0.50
2018-10-01T16:16:57.216Z,0.70
2018-10-01T16:19:25.158Z,0.60
2018-10-01T16:21:53.006Z,0.90
2018-10-01T16:24:20.870Z,1.03
2018-10-01T16:26:49.267Z,0.77
2018-10-01T16:29:17.123Z,0.60
2018-10-01T16:31:44.980Z,0.57
2018-10-01T16:34:12.859Z,0.73
2018-10-01T16:36:40.715Z,0.67
2018-10-01T16:39:09.567Z,0.70
2018-10-01T16:41:37.584Z,0.53
2018-10-01T16:44:05.443Z,0.80
2018-10-01T16:46:33.379Z,0.93
2018-10-01T16:49:01.275Z,0.40
2018-10-01T16:51:29.901Z,0.60
2018-10-01T16:53:57.948Z,0.67
2018-10-01T16:56:25.825Z,0.50
2018-10-01T16:58:53.723Z,0.60
2018-10-01T17:01:21.771Z,0.63
2018-10-01T17:03:49.654Z,0.60
2018-10-01T17:06:17.578Z,0.93
2018-10-01T17:08:46.979Z,0.63
2018-10-01T17:11:14.869Z,0.77
2018-10-01T17:13:42.751Z,1.07
2018-10-01T17:16:10.664Z,1.10
2018-10-01T17:18:38.521Z,1.23
2018-10-01T17:21:06.389Z,0.97
2018-10-01T17:23:34.260Z,1.00
2018-10-01T17:26:02.220Z,1.43
2018-10-01T17:28:30.102Z,0.80
2018-10-01T17:30:58.106Z,1.10
2018-10-01T17:33:26.028Z,1.17
2018-10-01T17:35:53.896Z,1.00
2018-10-01T17:38:21.786Z,0.90
2018-10-01T17:40:49.639Z,1.00
2018-10-01T17:43:17.619Z,1.10
2018-10-01T17:45:45.754Z,1.10
2018-10-01T17:48:13.753Z,1.23
2018-10-01T17:50:41.722Z,0.83
2018-10-01T17:53:09.671Z,1.10
2018-10-01T17:55:37.523Z,0.93
2018-10-01T17:58:05.467Z,1.10
2018-10-01T18:00:33.391Z,1.27
2018-10-01T18:03:01.495Z,1.03
2018-10-01T18:05:29.450Z,1.40
2018-10-01T18:07:57.323Z,1.20
2018-10-01T18:10:25.272Z,0.80
2018-10-01T18:12:53.243Z,0.87
2018-10-01T18:15:21.219Z,1.00
2018-10-01T18:17:49.237Z,0.90
2018-10-01T18:20:17.144Z,0.70
2018-10-01T18:22:45.115Z,1.00
2018-10-01T18:25:13.067Z,0.67
2018-10-01T18:27:40.967Z,0.70
2018-10-01T18:30:09.077Z,1.00
2018-10-01T18:32:36.970Z,0.73
2018-10-01T18:35:05.171Z,1.17
2018-10-01T18:37:33.223Z,1.10
2018-10-01T18:40:01.104Z,0.87
2018-10-01T18:42:29.122Z,0.80
2018-10-01T18:44:57.062Z,1.10
2018-10-01T18:47:25.012Z,1.40
2018-10-01T18:49:52.986Z,1.30
2018-10-01T18:52:20.946Z,1.40
2018-10-01T18:54:48.820Z,1.20
2018-10-01T18:57:17.006Z,1.20
2018-10-01T18:59:45.050Z,0.93
2018-10-01T19:02:12.977Z,0.93
2018-10-01T19:04:40.886Z,0.93
2018-10-01T19:07:08.754Z,0.90
2018-10-01T19:09:36.634Z,1.20
2018-10-01T19:14:52.643Z,1.27
2018-10-01T19:17:20.479Z,1.07
2018-10-01T19:19:48.407Z,0.90
2018-10-01T19:22:16.348Z,0.90
2018-10-01T19:24:44.436Z,0.70
2018-10-01T19:27:12.628Z,0.90
2018-10-01T19:29:40.539Z,1.20
2018-10-01T19:32:08.451Z,1.60
2018-10-01T19:34:37.550Z,1.13
2018-10-01T19:37:05.984Z,1.13
2018-10-01T19:39:33.904Z,0.93
2018-10-01T19:42:01.904Z,1.10
2018-10-01T19:44:30.844Z,1.43
2018-10-01T19:46:58.847Z,1.20
2018-10-01T19:49:27.163Z,1.57
2018-10-01T19:51:56.600Z,1.40
2018-10-01T19:54:24.634Z,1.30
2018-10-01T19:56:53.661Z,1.17
2018-10-01T19:59:21.690Z,1.70
2018-10-01T20:01:49.604Z,1.63
2018-10-01T20:04:17.649Z,1.63
2018-10-01T20:06:45.573Z,1.60
2018-10-01T20:09:13.853Z,1.40
2018-10-01T20:11:43.267Z,1.50
2018-10-01T20:14:11.170Z,1.70
2018-10-01T20:16:39.071Z,1.57
2018-10-01T20:19:07.061Z,1.70
2018-10-01T20:21:34.989Z,1.57
2018-10-01T20:24:03.031Z,1.90
2018-10-01T20:26:30.966Z,1.97
2018-10-01T20:28:58.838Z,1.93
2018-10-01T20:31:26.673Z,2.13
2018-10-01T20:33:54.634Z,1.53
2018-10-01T20:36:23.760Z,1.70
2018-10-01T20:38:51.635Z,2.20
2018-10-01T20:41:20.636Z,1.93
2018-10-01T20:43:48.619Z,1.80
2018-10-01T20:46:16.560Z,1.80
2018-10-01T20:48:44.434Z,2.10
2018-10-01T20:51:12.387Z,1.77
2018-10-01T20:53:40.360Z,2.00
2018-10-01T20:56:08.268Z,1.97
2018-10-01T20:58:36.096Z,1.63
2018-10-01T21:01:03.968Z,2.00
2018-10-01T21:03:32.010Z,3.03
2018-10-01T21:05:59.883Z,2.27
2018-10-01T21:08:27.953Z,1.90
2018-10-01T21:10:55.855Z,2.13
2018-10-01T21:13:23.774Z,2.13
2018-10-01T21:15:51.644Z,2.10
2018-10-01T21:18:19.570Z,2.37
2018-10-01T21:20:47.555Z,2.13
2018-10-01T21:23:15.571Z,2.47
2018-10-01T21:25:43.507Z,2.23
2018-10-01T21:28:11.382Z,1.80
2018-10-01T21:30:41.483Z,2.27
2018-10-01T21:33:09.423Z,2.13
2018-10-01T21:35:37.364Z,2.00
2018-10-01T21:38:05.334Z,1.70
2018-10-01T21:40:33.270Z,2.07
2018-10-01T21:43:02.612Z,1.80
2018-10-01T21:45:30.551Z,2.43
2018-10-01T21:47:58.438Z,2.33
2018-10-01T21:50:26.379Z,1.93
2018-10-01T21:52:54.340Z,2.10
2018-10-01T21:55:22.277Z,1.80
2018-10-01T21:57:50.179Z,1.63
2018-10-01T22:00:18.515Z,2.00
2018-10-01T22:02:46.460Z,2.23
2018-10-01T22:05:14.407Z,2.23
2018-10-01T22:07:42.999Z,2.13
2018-10-01T22:10:10.966Z,2.30
2018-10-01T22:12:39.970Z,2.23
2018-10-01T22:15:07.918Z,2.00
2018-10-01T22:17:36.981Z,2.27
2018-10-01T22:20:05.973Z,1.77
2018-10-01T22:22:34.915Z,2.00
2018-10-01T22:25:03.683Z,2.40
2018-10-01T22:27:32.567Z,2.93
2018-10-01T22:30:00.675Z,2.90
2018-10-01T22:32:28.631Z,2.53
2018-10-01T22:34:57.595Z,2.90
2018-10-01T22:37:25.571Z,2.20
2018-10-01T22:39:53.534Z,2.03
2018-10-01T22:42:21.531Z,2.20
2018-10-01T22:44:49.480Z,2.30
2018-10-01T22:47:17.459Z,2.40
2018-10-01T22:49:45.426Z,2.17
2018-10-01T22:52:13.382Z,2.60
2018-10-01T22:54:41.412Z,2.77
2018-10-01T22:57:09.287Z,2.17
2018-10-01T22:59:37.397Z,2.60
2018-10-01T23:02:05.383Z,2.87
2018-10-01T23:04:33.326Z,2.43
2018-10-01T23:07:01.191Z,2.20
2018-10-01T23:09:30.856Z,3.60
2018-10-01T23:11:58.769Z,3.17
2018-10-01T23:14:28.229Z,3.10
2018-10-01T23:16:56.146Z,3.03
2018-10-01T23:19:24.111Z,4.20
2018-10-01T23:21:52.014Z,4.10
2018-10-01T23:24:19.942Z,4.23
2018-10-01T23:26:47.962Z,5.03
2018-10-01T23:29:16.187Z,4.47
2018-10-01T23:31:44.166Z,4.53
2018-10-01T23:34:13.178Z,4.07
2018-10-01T23:36:41.071Z,4.60
2018-10-01T23:39:08.968Z,4.67
2018-10-01T23:41:36.842Z,4.30
2018-10-01T23:44:05.933Z,4.93
2018-10-01T23:46:33.883Z,4.10
2018-10-01T23:49:01.805Z,4.60
2018-10-01T23:51:31.704Z,4.37
2018-10-01T23:53:59.742Z,5.10
2018-10-01T23:56:27.621Z,6.03
2018-10-01T23:58:55.790Z,5.70
